createdAt,value
2022-12-19T00:02:00.509Z,155.00
2022-12-19T00:04:36.292Z,152.23
2022-12-19T00:07:10.749Z,155.45
2022-12-19T00:09:48.241Z,165.65
2022-12-19T00:12:23.308Z,147.85
2022-12-19T00:14:58.128Z,156.53
2022-12-19T00:17:34.050Z,166.02
2022-12-19T00:20:15.329Z,169.52
2022-12-19T00:22:55.077Z,177.30
2022-12-19T00:25:34.534Z,165.25
2022-12-19T00:28:11.577Z,162.40
2022-12-19T00:30:47.232Z,172.63
2022-12-19T00:33:22.230Z,166.48
2022-12-19T00:36:01.170Z,167.05
2022-12-19T00:38:36.300Z,178.25
2022-12-19T00:41:16.416Z,173.33
2022-12-19T00:43:55.369Z,175.35
2022-12-19T00:46:29.804Z,161.80
2022-12-19T00:49:04.725Z,172.82
2022-12-19T00:51:37.885Z,170.07
2022-12-19T00:54:16.680Z,178.35
2022-12-19T00:56:55.304Z,178.18
2022-12-19T00:59:31.487Z,171.15
2022-12-19T01:02:06.069Z,170.85
2022-12-19T01:04:41.928Z,182.98
2022-12-19T01:07:20.355Z,177.80
2022-12-19T01:09:55.930Z,182.55
2022-12-19T01:12:45.894Z,185.68
2022-12-19T01:15:21.841Z,188.20
2022-12-19T01:20:30.628Z,176.30
2022-12-19T01:23:06.668Z,195.20
2022-12-19T01:25:45.932Z,178.40
2022-12-19T01:28:24.026Z,182.20
2022-12-19T01:30:59.101Z,184.60
2022-12-19T01:33:37.331Z,197.83
2022-12-19T01:36:13.809Z,182.20
2022-12-19T01:38:48.006Z,176.15
2022-12-19T01:41:25.508Z,184.13
2022-12-19T01:43:59.395Z,181.00
2022-12-19T01:46:37.903Z,191.45
2022-12-19T01:49:20.205Z,185.10
2022-12-19T01:52:02.113Z,180.75
2022-12-19T01:54:39.981Z,165.88
2022-12-19T01:57:15.851Z,179.97
2022-12-19T01:59:51.779Z,180.70
2022-12-19T02:02:33.328Z,167.13
2022-12-19T02:05:07.878Z,172.13
2022-12-19T02:07:40.837Z,173.20
2022-12-19T02:10:15.494Z,179.35
2022-12-19T02:12:49.981Z,177.02
2022-12-19T02:15:24.693Z,193.90
2022-12-19T02:18:07.429Z,171.63
2022-12-19T02:20:54.058Z,182.70
2022-12-19T02:24:05.728Z,170.75
2022-12-19T02:26:52.826Z,181.75
2022-12-19T02:29:49.775Z,184.20
2022-12-19T02:35:09.011Z,159.00
2022-12-19T02:37:48.326Z,175.25
2022-12-19T02:40:30.161Z,157.55
2022-12-19T02:43:06.281Z,180.90
2022-12-19T02:45:41.614Z,162.68
2022-12-19T02:48:19.314Z,171.30
2022-12-19T02:50:57.829Z,170.77
2022-12-19T02:53:34.042Z,161.70
2022-12-19T02:56:28.945Z,174.25
2022-12-19T02:59:18.052Z,159.27
2022-12-19T03:01:55.063Z,162.43
2022-12-19T03:04:36.507Z,163.65
2022-12-19T03:07:19.517Z,155.38
2022-12-19T03:09:56.254Z,141.60
2022-12-19T03:12:30.084Z,162.77
2022-12-19T03:15:05.312Z,161.18
2022-12-19T03:17:40.191Z,174.50
2022-12-19T03:20:22.562Z,154.05
2022-12-19T03:23:02.371Z,154.40
2022-12-19T03:25:35.941Z,157.77
2022-12-19T03:28:15.129Z,138.32
2022-12-19T03:30:50.697Z,158.85
2022-12-19T03:33:26.173Z,154.80
2022-12-19T03:36:01.967Z,139.70
2022-12-19T03:38:41.429Z,157.25
2022-12-19T03:41:39.616Z,141.63
2022-12-19T03:44:11.301Z,160.18
2022-12-19T03:46:47.786Z,160.60
2022-12-19T03:49:22.749Z,143.77
2022-12-19T03:51:59.668Z,144.55
2022-12-19T03:54:38.043Z,149.80
2022-12-19T03:57:13.514Z,148.17
2022-12-19T03:59:53.917Z,157.82
2022-12-19T04:02:28.162Z,152.90
2022-12-19T04:05:05.577Z,145.40
2022-12-19T04:10:19.384Z,141.00
2022-12-19T04:12:55.858Z,145.07
2022-12-19T04:15:36.234Z,151.45
2022-12-19T04:18:13.280Z,149.30
2022-12-19T04:20:48.985Z,135.85
2022-12-19T04:23:26.134Z,145.63
2022-12-19T04:26:05.400Z,139.27
2022-12-19T04:28:41.914Z,134.32
2022-12-19T04:31:16.080Z,146.15
2022-12-19T04:33:50.794Z,127.82
2022-12-19T04:36:24.920Z,137.98
2022-12-19T04:38:59.523Z,144.68
2022-12-19T04:41:37.564Z,156.90
2022-12-19T04:44:11.013Z,149.27
2022-12-19T04:46:46.573Z,141.43
2022-12-19T04:49:21.766Z,137.45
2022-12-19T04:51:57.380Z,144.60
2022-12-19T04:54:32.432Z,134.83
2022-12-19T04:57:09.939Z,144.57
2022-12-19T04:59:45.159Z,131.80
2022-12-19T05:02:20.285Z,144.00
2022-12-19T05:04:57.215Z,147.17
2022-12-19T05:07:31.979Z,138.10
2022-12-19T05:10:09.797Z,137.43
2022-12-19T05:12:46.722Z,130.93
2022-12-19T05:15:20.881Z,123.72
2022-12-19T05:17:55.360Z,129.13
2022-12-19T05:20:30.896Z,137.00
2022-12-19T05:23:10.156Z,132.43
2022-12-19T05:25:49.714Z,132.35
2022-12-19T05:28:26.813Z,130.23
2022-12-19T05:31:07.212Z,131.32
2022-12-19T05:33:42.075Z,128.25
2022-12-19T05:36:29.039Z,130.18
2022-12-19T05:39:07.312Z,129.88
2022-12-19T05:41:43.055Z,137.80
2022-12-19T05:44:23.455Z,131.85
2022-12-19T05:46:58.162Z,110.00
2022-12-19T05:49:34.697Z,113.07
2022-12-19T05:52:09.497Z,130.13
2022-12-19T05:54:52.278Z,120.97
2022-12-19T05:57:28.926Z,135.85
2022-12-19T06:00:12.649Z,136.03
2022-12-19T06:02:43.216Z,161.45
2022-12-19T06:05:17.826Z,140.10
2022-12-19T06:07:58.449Z,124.30
2022-12-19T06:10:31.720Z,116.53
2022-12-19T06:13:05.776Z,120.57
2022-12-19T06:15:43.107Z,129.00
2022-12-19T06:18:19.342Z,119.70
2022-12-19T06:21:01.531Z,109.25
2022-12-19T06:23:38.159Z,115.78
2022-12-19T06:26:18.607Z,99.47
2022-12-19T06:28:54.862Z,103.32
2022-12-19T06:31:32.620Z,114.95
2022-12-19T06:34:08.111Z,102.82
2022-12-19T06:36:43.139Z,91.80
2022-12-19T06:39:17.918Z,114.45
2022-12-19T06:42:05.706Z,104.63
2022-12-19T06:44:39.614Z,123.40
2022-12-19T06:47:16.865Z,147.38
2022-12-19T06:49:50.688Z,145.80
2022-12-19T06:52:24.646Z,139.38
2022-12-19T06:54:58.628Z,103.47
2022-12-19T06:57:32.655Z,96.03
2022-12-19T07:00:07.276Z,91.63
2022-12-19T07:02:45.316Z,105.47
2022-12-19T07:05:19.453Z,97.68
2022-12-19T07:07:54.112Z,115.95
2022-12-19T07:10:28.728Z,112.60
2022-12-19T07:13:02.452Z,104.03
2022-12-19T07:15:36.942Z,106.40
2022-12-19T07:18:14.712Z,96.00
2022-12-19T07:20:48.728Z,107.18
2022-12-19T07:23:23.666Z,99.00
2022-12-19T07:25:57.835Z,96.95
2022-12-19T07:28:31.763Z,117.47
2022-12-19T07:31:08.862Z,96.55
2022-12-19T07:33:48.075Z,95.78
2022-12-19T07:36:23.892Z,84.35
2022-12-19T07:38:57.700Z,85.72
2022-12-19T07:41:34.547Z,92.97
2022-12-19T07:44:13.093Z,81.05
2022-12-19T07:46:48.378Z,86.82
2022-12-19T07:49:25.644Z,78.90
2022-12-19T07:52:00.328Z,79.43
2022-12-19T07:54:35.323Z,80.25
2022-12-19T07:57:10.999Z,73.05
2022-12-19T07:59:47.092Z,77.60
2022-12-19T08:02:25.578Z,70.28
2022-12-19T08:05:05.184Z,71.78
2022-12-19T08:07:39.951Z,75.18
2022-12-19T08:10:15.207Z,73.22
2022-12-19T08:12:50.136Z,83.10
2022-12-19T08:15:27.820Z,72.47
2022-12-19T08:18:03.905Z,73.05
2022-12-19T08:23:18.037Z,72.53
2022-12-19T08:26:15.954Z,69.93
2022-12-19T08:28:51.283Z,72.00
2022-12-19T08:31:27.591Z,71.25
2022-12-19T08:34:02.286Z,75.80
2022-12-19T08:36:40.408Z,72.75
2022-12-19T08:39:15.782Z,62.28
2022-12-19T08:41:50.585Z,66.78
2022-12-19T08:44:26.264Z,70.35
2022-12-19T08:47:02.737Z,73.03
2022-12-19T08:49:40.488Z,75.32
2022-12-19T08:52:18.081Z,73.35
2022-12-19T08:54:53.139Z,64.60
2022-12-19T08:57:29.754Z,67.45
2022-12-19T09:00:05.218Z,62.72
2022-12-19T09:02:40.285Z,64.85
2022-12-19T09:05:59.848Z,64.40
2022-12-19T09:08:12.516Z,61.65
2022-12-19T09:10:48.033Z,59.95
2022-12-19T09:13:22.833Z,58.70
2022-12-19T09:16:03.847Z,57.28
2022-12-19T09:18:45.166Z,63.60
2022-12-19T09:21:24.402Z,58.40
2022-12-19T09:24:07.694Z,61.22
2022-12-19T09:26:42.813Z,61.15
2022-12-19T09:29:20.882Z,56.20
2022-12-19T09:31:57.220Z,50.05
2022-12-19T09:34:37.488Z,48.67
2022-12-19T09:37:17.908Z,48.50
2022-12-19T09:39:59.255Z,48.70
2022-12-19T09:42:44.185Z,55.85
2022-12-19T09:45:31.821Z,52.05
2022-12-19T09:48:23.670Z,74.15
2022-12-19T09:51:09.372Z,61.67
2022-12-19T09:53:54.702Z,52.90
2022-12-19T09:56:39.410Z,48.25
2022-12-19T09:59:26.168Z,46.63
2022-12-19T10:02:06.258Z,46.78
2022-12-19T10:04:42.062Z,46.55
2022-12-19T10:07:40.222Z,40.85
2022-12-19T10:12:25.364Z,49.58
2022-12-19T10:13:20.671Z,44.67
2022-12-19T10:16:00.316Z,44.80
2022-12-19T10:18:41.355Z,42.40
2022-12-19T10:21:32.025Z,39.23
2022-12-19T10:24:35.385Z,38.65
2022-12-19T10:27:14.455Z,36.35
2022-12-19T10:30:03.651Z,43.95
2022-12-19T10:32:40.416Z,40.47
2022-12-19T10:35:17.893Z,35.85
2022-12-19T10:37:55.688Z,34.28
2022-12-19T10:40:34.121Z,37.17
2022-12-19T10:43:22.905Z,38.13
2022-12-19T10:46:13.212Z,32.22
2022-12-19T10:48:47.911Z,33.07
2022-12-19T10:51:26.919Z,31.45
2022-12-19T10:54:04.099Z,31.63
2022-12-19T10:56:40.254Z,35.03
2022-12-19T11:02:00.698Z,32.00
2022-12-19T11:04:37.868Z,28.00
2022-12-19T11:10:20.541Z,33.17
2022-12-19T11:19:28.977Z,36.60
2022-12-19T11:20:49.328Z,38.22
2022-12-19T11:29:34.224Z,34.38
2022-12-19T11:29:41.547Z,34.47
2022-12-19T11:29:55.165Z,34.30
2022-12-19T11:30:43.263Z,29.55
2022-12-19T11:31:54.628Z,34.25
2022-12-19T11:34:00.221Z,29.23
2022-12-19T11:36:42.031Z,30.17
2022-12-19T11:39:23.964Z,31.55
2022-12-19T11:42:03.701Z,31.38
2022-12-19T11:44:39.732Z,34.00
2022-12-19T11:47:24.089Z,33.13
2022-12-19T11:50:02.329Z,29.17
2022-12-19T11:55:45.788Z,29.95
2022-12-19T11:58:20.181Z,32.58
2022-12-19T12:00:57.555Z,35.28
2022-12-19T12:04:08.988Z,30.75
2022-12-19T12:06:47.972Z,32.63
2022-12-19T12:14:14.595Z,31.52
2022-12-19T12:19:23.094Z,29.08
2022-12-19T12:26:15.033Z,23.08
2022-12-19T12:27:50.138Z,30.20
2022-12-19T12:30:44.992Z,26.87
2022-12-19T12:31:40.921Z,29.38
2022-12-19T12:31:51.877Z,29.27
2022-12-19T12:31:55.326Z,27.07
2022-12-19T12:35:29.214Z,28.67
2022-12-19T12:39:56.407Z,29.27
2022-12-19T12:42:37.161Z,29.83
2022-12-19T12:45:21.053Z,31.60
2022-12-19T12:47:56.822Z,26.00
2022-12-19T12:50:31.279Z,30.33
2022-12-19T12:53:06.360Z,30.52
2022-12-19T12:55:44.664Z,31.23
2022-12-19T12:58:53.985Z,28.63
2022-12-19T13:01:34.241Z,30.90
2022-12-19T13:04:10.570Z,32.85
2022-12-19T13:06:48.401Z,31.95
2022-12-19T13:09:25.240Z,30.70
2022-12-19T13:12:19.082Z,32.05
2022-12-19T13:14:53.549Z,32.07
2022-12-19T13:17:49.424Z,33.38
2022-12-19T13:20:49.068Z,30.85
2022-12-19T13:23:28.832Z,28.42
2022-12-19T13:26:03.511Z,30.90
2022-12-19T13:28:59.084Z,33.00
2022-12-19T13:31:33.605Z,29.58
2022-12-19T13:34:16.374Z,28.55
2022-12-19T13:39:54.617Z,31.88
2022-12-19T13:40:08.769Z,32.35
2022-12-19T13:43:10.881Z,33.35
2022-12-19T13:45:53.410Z,31.65
2022-12-19T13:48:32.453Z,32.03
2022-12-19T13:51:09.725Z,29.70
2022-12-19T13:53:46.199Z,33.73
2022-12-19T13:56:22.379Z,35.80
2022-12-19T14:01:36.117Z,34.60
2022-12-19T14:04:12.578Z,38.13
2022-12-19T14:06:48.515Z,39.97
2022-12-19T14:11:27.802Z,37.83
2022-12-19T14:13:57.039Z,41.08
2022-12-19T14:15:34.168Z,41.97
2022-12-19T14:18:41.914Z,38.28
2022-12-19T14:24:20.181Z,36.13
2022-12-19T14:28:17.341Z,39.60
2022-12-19T14:30:27.367Z,33.00
2022-12-19T14:33:45.065Z,44.00
2022-12-19T14:36:10.891Z,37.70
2022-12-19T14:39:22.660Z,48.05
2022-12-19T14:42:01.769Z,36.70
2022-12-19T14:52:34.219Z,43.10
2022-12-19T14:54:11.540Z,40.25
2022-12-19T14:54:28.466Z,35.83
2022-12-19T14:54:37.845Z,41.10
2022-12-19T14:57:05.899Z,36.20
2022-12-19T14:59:46.296Z,37.55
2022-12-19T15:02:27.923Z,43.90
2022-12-19T15:05:09.389Z,36.58
2022-12-19T15:07:46.535Z,38.15
2022-12-19T15:11:03.268Z,40.80
2022-12-19T15:14:20.856Z,34.85
2022-12-19T15:16:28.502Z,38.40
2022-12-19T15:19:04.236Z,38.35
2022-12-19T15:21:39.802Z,33.47
2022-12-19T15:24:15.869Z,38.20
2022-12-19T15:29:29.574Z,39.88
2022-12-19T15:32:05.542Z,43.28
2022-12-19T15:34:50.656Z,44.90
2022-12-19T15:37:27.393Z,42.83
2022-12-19T15:42:47.521Z,39.20
2022-12-19T15:45:23.876Z,41.20
2022-12-19T15:47:59.385Z,38.93
2022-12-19T15:50:34.232Z,41.10
2022-12-19T15:53:25.750Z,39.30
2022-12-19T15:56:02.440Z,37.80
2022-12-19T15:58:39.549Z,37.33
2022-12-19T16:01:16.096Z,38.93
2022-12-19T16:03:52.289Z,43.35
2022-12-19T16:06:26.690Z,43.43
2022-12-19T16:09:01.177Z,37.80
2022-12-19T16:11:36.382Z,37.30
2022-12-19T16:14:16.397Z,39.53
2022-12-19T16:16:53.173Z,40.23
2022-12-19T16:19:28.620Z,39.70
2022-12-19T16:22:03.839Z,37.47
2022-12-19T16:24:37.695Z,37.25
2022-12-19T16:27:13.698Z,35.40
2022-12-19T16:29:51.703Z,36.35
2022-12-19T16:32:26.415Z,38.75
2022-12-19T16:35:00.889Z,39.70
2022-12-19T16:37:34.925Z,40.05
2022-12-19T16:40:12.953Z,38.00
2022-12-19T16:42:48.243Z,38.57
2022-12-19T16:45:26.889Z,34.70
2022-12-19T16:48:01.765Z,37.80
2022-12-19T16:50:35.927Z,44.83
2022-12-19T16:53:10.048Z,35.47
2022-12-19T16:55:45.868Z,34.40
2022-12-19T16:58:22.261Z,40.15
2022-12-19T17:00:59.940Z,39.15
2022-12-19T17:03:36.602Z,36.77
2022-12-19T17:06:13.059Z,39.00
2022-12-19T17:08:47.955Z,43.45
2022-12-19T17:11:24.624Z,36.65
2022-12-19T17:14:03.187Z,36.65
2022-12-19T17:16:42.129Z,39.90
2022-12-19T17:19:21.443Z,43.30
2022-12-19T17:21:55.646Z,39.20
2022-12-19T17:24:30.616Z,41.20
2022-12-19T17:27:05.169Z,37.47
2022-12-19T17:29:37.667Z,44.10
2022-12-19T17:32:21.523Z,36.27
2022-12-19T17:34:58.364Z,42.17
2022-12-19T17:37:35.189Z,42.40
2022-12-19T17:40:18.591Z,33.10
2022-12-19T17:42:52.793Z,36.20
2022-12-19T17:45:27.588Z,36.20
2022-12-19T17:48:09.210Z,36.17
2022-12-19T17:50:50.601Z,34.83
2022-12-19T17:53:22.845Z,40.13
2022-12-19T17:56:00.430Z,37.80
2022-12-19T17:58:36.511Z,38.63
2022-12-19T18:03:56.820Z,40.83
2022-12-19T18:06:34.669Z,30.80
2022-12-19T18:09:09.860Z,33.55
2022-12-19T18:11:47.655Z,36.17
2022-12-19T18:14:26.547Z,36.15
2022-12-19T18:17:03.157Z,32.65
2022-12-19T18:19:43.832Z,36.40
2022-12-19T18:22:26.784Z,35.65
2022-12-19T18:25:01.637Z,40.20
2022-12-19T18:27:39.271Z,35.15
2022-12-19T18:30:21.657Z,41.00
2022-12-19T18:32:57.644Z,38.70
2022-12-19T18:35:36.677Z,36.38
2022-12-19T18:38:15.745Z,33.92
2022-12-19T18:40:50.892Z,36.90
2022-12-19T18:43:27.781Z,41.10
2022-12-19T18:46:04.361Z,38.85
2022-12-19T18:48:41.780Z,38.28
2022-12-19T18:51:23.424Z,38.67
2022-12-19T18:53:57.987Z,35.20
2022-12-19T18:56:34.890Z,41.40
2022-12-19T18:59:10.030Z,43.40
2022-12-19T19:01:48.713Z,38.60
2022-12-19T19:04:28.406Z,40.77
2022-12-19T19:07:06.870Z,37.23
2022-12-19T19:09:45.211Z,42.80
2022-12-19T19:12:44.931Z,42.95
2022-12-19T19:15:21.550Z,39.33
2022-12-19T19:18:02.347Z,37.60
2022-12-19T19:20:38.252Z,39.63
2022-12-19T19:23:16.438Z,44.33
2022-12-19T19:25:52.197Z,38.60
2022-12-19T19:28:27.081Z,40.30
2022-12-19T19:31:10.788Z,40.45
2022-12-19T19:33:46.830Z,42.97
2022-12-19T19:36:25.139Z,39.80
2022-12-19T19:39:04.953Z,43.87
2022-12-19T19:41:39.927Z,40.55
2022-12-19T19:44:17.533Z,36.35
2022-12-19T19:46:55.051Z,40.83
2022-12-19T19:49:31.573Z,43.50
2022-12-19T19:52:08.201Z,41.40
2022-12-19T19:54:45.935Z,39.85
2022-12-19T19:57:25.472Z,38.38
2022-12-19T20:00:01.520Z,35.78
2022-12-19T20:02:38.151Z,39.88
2022-12-19T20:05:13.337Z,37.08
2022-12-19T20:07:49.224Z,38.20
2022-12-19T20:10:27.810Z,37.50
2022-12-19T20:13:05.179Z,38.22
2022-12-19T20:15:46.080Z,38.70
2022-12-19T20:18:33.664Z,43.57
2022-12-19T20:21:13.469Z,41.10
2022-12-19T20:23:49.316Z,47.33
2022-12-19T20:26:29.596Z,42.40
2022-12-19T20:29:06.719Z,39.67
2022-12-19T20:31:42.974Z,41.42
2022-12-19T20:34:20.232Z,40.30
2022-12-19T20:36:56.940Z,38.97
2022-12-19T20:39:34.838Z,45.20
2022-12-19T20:42:14.391Z,45.15
2022-12-19T20:44:49.691Z,44.72
2022-12-19T20:47:24.963Z,40.60
2022-12-19T20:50:02.643Z,40.67
2022-12-19T20:52:37.793Z,45.40
2022-12-19T20:55:14.364Z,41.67
2022-12-19T20:57:53.040Z,43.65
2022-12-19T21:00:30.149Z,41.50
2022-12-19T21:06:02.587Z,39.40
2022-12-19T21:08:38.921Z,42.25
2022-12-19T21:11:18.923Z,41.85
2022-12-19T21:13:58.041Z,64.95
2022-12-19T21:16:34.730Z,68.55
2022-12-19T21:19:12.998Z,49.53
2022-12-19T21:21:49.085Z,50.50
2022-12-19T21:27:00.130Z,44.17
2022-12-19T21:29:40.108Z,51.55
2022-12-19T21:32:23.522Z,42.05
2022-12-19T21:34:58.929Z,45.88
2022-12-19T21:37:41.716Z,47.47
2022-12-19T21:40:21.900Z,44.47
2022-12-19T21:42:59.963Z,45.58
2022-12-19T21:45:41.348Z,45.60
2022-12-19T21:48:22.834Z,51.00
2022-12-19T21:51:02.340Z,50.70
2022-12-19T21:53:37.484Z,43.40
2022-12-19T21:56:22.700Z,48.90
2022-12-19T21:58:59.116Z,43.00
2022-12-19T22:01:37.285Z,41.65
2022-12-19T22:04:15.329Z,45.80
2022-12-19T22:06:50.440Z,45.83
2022-12-19T22:09:25.630Z,50.75
2022-12-19T22:12:00.428Z,35.58
2022-12-19T22:14:34.939Z,41.40
2022-12-19T22:17:13.324Z,53.67
2022-12-19T22:19:48.670Z,44.80
2022-12-19T22:22:24.028Z,52.30
2022-12-19T22:25:05.374Z,45.72
2022-12-19T22:27:43.379Z,48.60
2022-12-19T22:30:23.446Z,50.67
2022-12-19T22:33:06.815Z,57.70
2022-12-19T22:35:41.890Z,51.90
2022-12-19T22:38:19.987Z,54.07
2022-12-19T22:41:01.122Z,54.50
2022-12-19T22:43:42.662Z,52.13
2022-12-19T22:46:21.636Z,54.17
2022-12-19T22:49:02.652Z,54.90
2022-12-19T22:51:36.729Z,55.35
2022-12-19T22:54:11.045Z,55.35
2022-12-19T22:56:47.557Z,74.95
2022-12-19T22:59:24.001Z,71.05
2022-12-19T23:01:59.353Z,80.50
2022-12-19T23:04:37.538Z,79.03
2022-12-19T23:07:12.598Z,65.25
2022-12-19T23:09:50.731Z,59.95
2022-12-19T23:12:25.535Z,60.50
2022-12-19T23:15:01.308Z,79.35
2022-12-19T23:17:38.453Z,64.45
2022-12-19T23:20:17.145Z,71.73
2022-12-19T23:22:53.588Z,55.38
2022-12-19T23:25:29.839Z,53.75
2022-12-19T23:30:46.832Z,44.72
2022-12-19T23:33:21.610Z,43.55
2022-12-19T23:36:00.183Z,53.05
2022-12-19T23:38:35.732Z,57.05
2022-12-19T23:41:13.527Z,54.80
2022-12-19T23:43:51.322Z,45.08
2022-12-19T23:46:27.513Z,41.90
2022-12-19T23:49:04.384Z,45.85
2022-12-19T23:51:42.224Z,43.75
2022-12-19T23:54:19.489Z,44.50
2022-12-19T23:56:53.817Z,44.03
2022-12-19T23:59:31.255Z,43.45
